Time;durP1;ratioP1;P1;durP2;ratioP2;P2;SDS_P1;SDS_P2;PMS_P1;PMS_P2;Temp;Humidity;BMP_temperature;BMP_pressure;BME280_temperature;BME280_humidity;BME280_pressure;Samples;Min_cycle;Max_cycle;Signal;HPM_P1;HPM_P2
2020/12/03 00:02:02;;;;;;;32.30;19.10;;;2.10;34.70;;;;;;5064509;28;20288;-76
2020/12/03 00:04:30;;;;;;;38.63;21.25;;;2.20;99.90;;;;;;5066404;28;20239;-76
2020/12/03 00:07:01;;;;;;;33.65;20.42;;;2.20;99.90;;;;;;5063726;28;20219;-76
2020/12/03 00:09:28;;;;;;;32.60;20.00;;;2.20;99.90;;;;;;5067312;28;20585;-76
2020/12/03 00:11:59;;;;;;;35.88;22.92;;;2.30;49.60;;;;;;5060671;28;20497;-75
2020/12/03 00:14:27;;;;;;;28.92;15.80;;;2.30;1.00;;;;;;5068720;28;20220;-75
2020/12/03 00:16:55;;;;;;;25.42;16.25;;;2.30;99.90;;;;;;5066481;28;20242;-75
2020/12/03 00:19:25;;;;;;;29.08;17.98;;;2.10;99.90;;;;;;5068497;28;20309;-75
2020/12/03 00:21:58;;;;;;;28.95;18.00;;;2.10;99.90;;;;;;5070462;28;20239;-75
2020/12/03 00:24:32;;;;;;;26.08;15.55;;;2.20;99.90;;;;;;5065352;28;20223;-74
2020/12/03 00:27:06;;;;;;;32.97;17.05;;;2.30;99.90;;;;;;5064794;28;20310;-76
2020/12/03 00:29:34;;;;;;;27.45;16.92;;;2.30;99.90;;;;;;5067851;28;20227;-76
2020/12/03 00:32:02;;;;;;;26.27;15.60;;;2.40;99.90;;;;;;5066632;28;20247;-75
2020/12/03 00:34:30;;;;;;;27.75;17.10;;;2.40;8.20;;;;;;5070565;28;20312;-75
2020/12/03 00:36:57;;;;;;;27.05;17.25;;;2.40;1.00;;;;;;5063656;28;20209;-74
2020/12/03 00:39:25;;;;;;;35.70;16.17;;;2.50;1.00;;;;;;5071863;28;20723;-75
2020/12/03 00:41:55;;;;;;;31.65;16.27;;;2.50;1.00;;;;;;5061457;28;20277;-75
2020/12/03 00:44:23;;;;;;;31.05;16.45;;;2.50;1.00;;;;;;5065732;28;20632;-76
2020/12/03 00:46:50;;;;;;;28.77;16.15;;;2.50;1.00;;;;;;5061330;28;20754;-76
2020/12/03 00:49:19;;;;;;;30.27;16.52;;;2.40;1.00;;;;;;5070258;28;20218;-75
2020/12/03 00:51:49;;;;;;;33.58;18.98;;;2.40;1.00;;;;;;5063067;28;20226;-74
2020/12/03 00:54:16;;;;;;;30.40;17.00;;;2.40;1.00;;;;;;5066387;28;20213;-76
2020/12/03 00:56:46;;;;;;;29.55;16.55;;;2.40;1.00;;;;;;5063992;28;20670;-75
2020/12/03 00:59:13;;;;;;;33.90;16.67;;;2.20;1.00;;;;;;5066120;28;20213;-75
2020/12/03 01:01:40;;;;;;;34.33;19.50;;;2.20;99.90;;;;;;5069023;28;20262;-75
2020/12/03 01:04:07;;;;;;;31.80;17.33;;;2.20;1.00;;;;;;5067605;28;20226;-74
2020/12/03 01:06:35;;;;;;;30.90;17.38;;;2.30;1.00;;;;;;5062927;28;20640;-75
2020/12/03 01:09:03;;;;;;;29.92;17.63;;;2.30;99.90;;;;;;5066987;28;20226;-75
2020/12/03 01:11:30;;;;;;;34.90;18.25;;;2.40;99.90;;;;;;5066355;28;20203;-76
2020/12/03 01:13:57;;;;;;;38.33;19.35;;;2.40;99.90;;;;;;5064385;28;20242;-76
2020/12/03 01:16:25;;;;;;;28.90;16.38;;;2.50;99.90;;;;;;5065456;28;20235;-75
2020/12/03 01:18:52;;;;;;;30.88;18.50;;;2.30;34.60;;;;;;5064109;28;20214;-75
2020/12/03 01:21:21;;;;;;;36.13;18.63;;;2.40;99.90;;;;;;5064825;28;20214;-76
2020/12/03 01:23:50;;;;;;;29.95;19.17;;;2.40;99.90;;;;;;5062887;28;20573;-75
2020/12/03 01:26:18;;;;;;;34.78;18.90;;;2.40;99.90;;;;;;5056927;28;20272;-75
2020/12/03 01:28:46;;;;;;;29.90;17.13;;;2.40;99.90;;;;;;5064194;28;20267;-76
2020/12/03 01:31:14;;;;;;;33.20;17.33;;;2.50;23.20;;;;;;5065830;28;20222;-76
2020/12/03 01:33:42;;;;;;;27.45;17.55;;;2.50;1.00;;;;;;5079430;28;20221;-76
2020/12/03 01:36:11;;;;;;;28.98;16.52;;;2.40;1.00;;;;;;5071029;28;20258;-76
2020/12/03 01:38:39;;;;;;;30.90;16.45;;;2.30;1.00;;;;;;5064534;28;20279;-76
2020/12/03 01:41:07;;;;;;;31.23;18.17;;;2.40;99.90;;;;;;5065669;28;20221;-77
2020/12/03 01:43:40;;;;;;;29.45;18.00;;;2.40;99.90;;;;;;5064327;28;20314;-77
2020/12/03 01:46:07;;;;;;;26.95;17.20;;;2.30;99.90;;;;;;5063834;28;20293;-77
2020/12/03 01:48:46;;;;;;;28.98;16.90;;;2.40;99.90;;;;;;5068548;28;20218;-77
2020/12/03 01:51:23;;;;;;;39.10;19.08;;;2.40;1.00;;;;;;5068774;28;20228;-77
2020/12/03 01:53:53;;;;;;;34.15;19.48;;;2.40;11.90;;;;;;5067770;28;20310;-77
2020/12/03 01:56:42;;;;;;;32.53;17.58;;;2.40;87.90;;;;;;5066505;28;20639;-77
2020/12/03 01:59:11;;;;;;;33.60;15.40;;;2.30;1.00;;;;;;5057154;28;20306;-77
2020/12/03 02:01:38;;;;;;;33.35;19.17;;;2.30;99.90;;;;;;5067738;28;20626;-76
2020/12/03 02:04:06;;;;;;;36.05;18.60;;;2.30;99.90;;;;;;5063764;28;20218;-75
2020/12/03 02:06:36;;;;;;;31.33;17.55;;;2.30;99.90;;;;;;5066811;28;20248;-74
2020/12/03 02:09:04;;;;;;;30.20;16.52;;;2.40;99.90;;;;;;5058711;28;20666;-75
2020/12/03 02:11:33;;;;;;;35.58;19.00;;;2.50;99.90;;;;;;5067532;28;20307;-75
2020/12/03 02:14:04;;;;;;;29.60;17.48;;;2.40;99.90;;;;;;5065319;28;20272;-75
2020/12/03 02:16:34;;;;;;;29.35;17.65;;;2.50;99.90;;;;;;5063743;28;20262;-74
2020/12/03 02:19:02;;;;;;;32.28;18.40;;;2.40;99.90;;;;;;5079231;28;20568;-75
2020/12/03 02:21:30;;;;;;;32.22;17.65;;;2.30;99.90;;;;;;5072901;28;20236;-75
2020/12/03 02:23:58;;;;;;;25.42;15.65;;;2.20;99.90;;;;;;5065696;28;20217;-75
2020/12/03 02:26:25;;;;;;;34.80;20.35;;;2.20;99.90;;;;;;5068123;28;20243;-74
2020/12/03 02:28:52;;;;;;;31.00;17.38;;;2.10;99.90;;;;;;5064900;28;20599;-75
2020/12/03 02:31:20;;;;;;;32.80;18.88;;;2.10;1.00;;;;;;5072558;28;20704;-75
2020/12/03 02:33:47;;;;;;;27.90;17.63;;;2.00;1.00;;;;;;5065073;28;20299;-75
2020/12/03 02:36:14;;;;;;;33.22;17.60;;;1.90;99.90;;;;;;5062996;28;20257;-75
2020/12/03 02:38:42;;;;;;;30.67;17.40;;;1.90;1.00;;;;;;5065450;28;20214;-76
2020/12/03 02:41:11;;;;;;;32.28;16.83;;;1.70;1.00;;;;;;5065880;28;20232;-75
2020/12/03 02:43:38;;;;;;;34.53;17.50;;;1.70;99.90;;;;;;5069534;28;20231;-76
2020/12/03 02:46:05;;;;;;;28.55;17.38;;;1.60;99.90;;;;;;5065377;28;20260;-77
2020/12/03 02:48:33;;;;;;;30.67;16.85;;;1.60;99.90;;;;;;5066980;28;20227;-75
2020/12/03 02:51:00;;;;;;;30.75;18.48;;;1.60;99.90;;;;;;5068080;28;20217;-75
2020/12/03 02:53:28;;;;;;;32.72;17.58;;;1.50;1.00;;;;;;5064880;28;20560;-75
2020/12/03 02:55:56;;;;;;;30.58;17.83;;;1.50;1.00;;;;;;5063392;28;20341;-75
2020/12/03 02:58:23;;;;;;;32.08;19.60;;;1.50;1.00;;;;;;5064191;28;20225;-75
2020/12/03 03:00:50;;;;;;;34.72;17.65;;;1.40;99.90;;;;;;5068005;28;20230;-75
2020/12/03 03:03:17;;;;;;;34.50;18.45;;;1.40;99.90;;;;;;5067120;28;20231;-75
2020/12/03 03:05:44;;;;;;;30.60;15.75;;;1.30;99.90;;;;;;5064508;28;20248;-75
2020/12/03 03:08:15;;;;;;;32.90;17.20;;;1.10;99.90;;;;;;5065673;28;20223;-75
2020/12/03 03:10:43;;;;;;;35.20;18.50;;;1.00;1.00;;;;;;5067195;28;20303;-75
2020/12/03 03:13:11;;;;;;;32.95;17.75;;;1.00;1.00;;;;;;5065081;28;20265;-76
2020/12/03 03:15:38;;;;;;;39.90;17.92;;;1.00;1.00;;;;;;5056014;28;20618;-76
2020/12/03 03:18:05;;;;;;;28.13;16.52;;;1.00;1.00;;;;;;5053461;28;20243;-76
2020/12/03 03:20:32;;;;;;;29.45;17.88;;;0.90;1.00;;;;;;5064815;28;20270;-76
2020/12/03 03:23:00;;;;;;;31.80;17.60;;;0.90;1.00;;;;;;5064869;28;20237;-76
2020/12/03 03:25:27;;;;;;;31.67;17.30;;;0.90;1.00;;;;;;5065865;28;20272;-77
2020/12/03 03:27:54;;;;;;;26.83;15.98;;;0.90;1.00;;;;;;5064747;28;20225;-75
2020/12/03 03:30:23;;;;;;;30.70;16.15;;;0.80;1.00;;;;;;5066438;28;20224;-76
2020/12/03 03:32:51;;;;;;;28.35;16.63;;;0.90;1.00;;;;;;5063205;28;20655;-76
2020/12/03 03:35:20;;;;;;;35.83;17.90;;;0.80;1.00;;;;;;5066912;28;20619;-76
2020/12/03 03:37:48;;;;;;;35.00;18.15;;;0.80;1.00;;;;;;5066200;28;20703;-75
2020/12/03 03:40:15;;;;;;;30.77;16.95;;;0.80;1.00;;;;;;5066123;28;20226;-76
2020/12/03 03:42:43;;;;;;;30.65;15.90;;;0.90;1.00;;;;;;5062616;28;20702;-76
2020/12/03 03:45:11;;;;;;;25.65;16.20;;;0.80;1.00;;;;;;5067546;28;20250;-76
2020/12/03 03:47:40;;;;;;;29.30;16.80;;;0.90;1.00;;;;;;5066058;28;20216;-76
2020/12/03 03:50:09;;;;;;;26.10;15.75;;;1.00;1.00;;;;;;5063308;28;20216;-76
2020/12/03 03:52:36;;;;;;;27.30;16.23;;;1.00;1.00;;;;;;5063815;28;20243;-76
2020/12/03 03:55:04;;;;;;;30.55;16.45;;;1.00;1.00;;;;;;5063355;28;20246;-76
2020/12/03 03:57:31;;;;;;;28.45;15.65;;;1.10;1.00;;;;;;5063833;28;20679;-74
2020/12/03 03:59:59;;;;;;;27.95;18.10;;;1.10;1.00;;;;;;5063310;28;20206;-75
2020/12/03 04:02:26;;;;;;;24.27;14.68;;;1.10;1.00;;;;;;5060621;28;20239;-76
2020/12/03 04:04:54;;;;;;;24.20;15.50;;;1.20;1.00;;;;;;5064100;28;20268;-77
2020/12/03 04:07:21;;;;;;;32.55;16.73;;;1.20;1.00;;;;;;5065202;28;20214;-77
2020/12/03 04:09:48;;;;;;;24.58;15.07;;;1.30;1.00;;;;;;5063217;28;20304;-75
2020/12/03 04:12:15;;;;;;;27.95;16.00;;;1.40;1.00;;;;;;5061752;28;20212;-76
2020/12/03 04:14:43;;;;;;;29.65;15.23;;;1.30;1.00;;;;;;5058907;28;20235;-75
2020/12/03 04:17:10;;;;;;;29.40;15.48;;;1.30;1.00;;;;;;5058711;28;20230;-74
2020/12/03 04:19:37;;;;;;;27.60;15.40;;;1.30;1.00;;;;;;5065312;28;20354;-74
2020/12/03 04:22:05;;;;;;;25.17;15.93;;;1.30;1.00;;;;;;5064860;28;20326;-75
2020/12/03 04:24:33;;;;;;;31.05;15.77;;;1.30;1.00;;;;;;5065091;28;20275;-75
2020/12/03 04:27:00;;;;;;;25.63;14.63;;;1.40;1.00;;;;;;5060395;28;20215;-75
2020/12/03 04:29:27;;;;;;;24.85;14.55;;;1.30;1.00;;;;;;5067809;28;20217;-75
2020/12/03 04:31:55;;;;;;;23.20;13.38;;;1.30;1.00;;;;;;5069012;28;20540;-76
2020/12/03 04:34:22;;;;;;;23.73;13.45;;;1.20;1.00;;;;;;5067054;28;20219;-74
2020/12/03 04:36:50;;;;;;;23.15;14.38;;;1.20;1.00;;;;;;5065336;28;20235;-75
2020/12/03 04:39:18;;;;;;;22.40;14.43;;;1.20;1.00;;;;;;5064992;28;20629;-76
2020/12/03 04:41:45;;;;;;;19.85;12.50;;;1.20;1.00;;;;;;5064579;28;20268;-74
2020/12/03 04:44:19;;;;;;;20.27;13.50;;;1.20;1.00;;;;;;5064212;28;20232;-75
2020/12/03 04:47:00;;;;;;;20.73;13.20;;;1.30;1.00;;;;;;5057510;28;20209;-75
2020/12/03 04:49:35;;;;;;;16.42;11.57;;;1.30;99.90;;;;;;5066803;28;20209;-76
2020/12/03 04:52:24;;;;;;;17.15;11.07;;;1.20;99.90;;;;;;5063495;28;20220;-75
2020/12/03 04:55:04;;;;;;;18.67;10.88;;;1.10;99.90;;;;;;5064699;28;20644;-75
2020/12/03 04:57:37;;;;;;;18.27;10.32;;;1.10;99.90;;;;;;5069264;28;20266;-75
2020/12/03 05:00:17;;;;;;;16.77;9.98;;;1.10;99.90;;;;;;5065990;28;20922;-75
2020/12/03 05:03:10;;;;;;;17.65;10.95;;;1.20;99.90;;;;;;5066164;28;20252;-76
2020/12/03 05:05:40;;;;;;;18.77;12.20;;;1.20;99.90;;;;;;5064018;28;20239;-76
2020/12/03 05:08:11;;;;;;;15.13;10.90;;;1.20;99.90;;;;;;5072879;28;20234;-75
2020/12/03 05:10:44;;;;;;;17.35;12.40;;;1.30;99.90;;;;;;5081004;28;20660;-76
2020/12/03 05:13:20;;;;;;;19.25;12.20;;;1.40;99.90;;;;;;5065880;28;20216;-75
2020/12/03 05:15:50;;;;;;;21.90;12.75;;;1.40;66.50;;;;;;5070390;28;20326;-75
2020/12/03 05:18:30;;;;;;;15.95;10.88;;;1.40;1.00;;;;;;5061314;28;20222;-75
2020/12/03 05:21:01;;;;;;;18.98;10.88;;;1.40;99.90;;;;;;5059474;28;20677;-75
2020/12/03 05:23:30;;;;;;;16.33;11.20;;;1.50;38.20;;;;;;5065681;28;20728;-74
2020/12/03 05:25:59;;;;;;;16.85;12.75;;;1.60;1.00;;;;;;5066627;28;20711;-72
2020/12/03 05:28:40;;;;;;;16.27;11.05;;;1.60;1.00;;;;;;5067760;28;20689;-72
2020/12/03 05:31:18;;;;;;;15.65;10.23;;;1.70;1.00;;;;;;5067672;28;20249;-74
2020/12/03 05:33:45;;;;;;;15.68;10.80;;;1.80;1.00;;;;;;5064552;28;20230;-74
2020/12/03 05:36:28;;;;;;;17.70;12.95;;;1.90;99.90;;;;;;5067082;28;20277;-74
2020/12/03 05:38:57;;;;;;;19.02;11.52;;;2.00;99.90;;;;;;5067718;28;20217;-74
2020/12/03 05:41:33;;;;;;;16.60;11.90;;;2.00;99.90;;;;;;5069301;28;20211;-74
2020/12/03 05:44:05;;;;;;;15.38;10.40;;;2.10;99.90;;;;;;5065511;28;20236;-73
2020/12/03 05:46:33;;;;;;;13.10;10.32;;;2.10;1.00;;;;;;5066456;28;20226;-73
2020/12/03 05:49:04;;;;;;;14.20;10.63;;;2.10;92.30;;;;;;5068977;28;20550;-74
2020/12/03 05:51:33;;;;;;;13.65;10.43;;;2.10;1.00;;;;;;5063003;28;20670;-74
2020/12/03 05:54:04;;;;;;;12.80;9.52;;;2.00;99.90;;;;;;5067608;28;20258;-71
2020/12/03 05:56:33;;;;;;;14.88;10.43;;;1.80;99.90;;;;;;5068559;28;20285;-74
2020/12/03 05:59:18;;;;;;;20.42;12.65;;;1.80;25.60;;;;;;5061597;28;20223;-74
2020/12/03 06:02:04;;;;;;;16.42;10.43;;;1.70;99.90;;;;;;5062951;28;20589;-75
2020/12/03 06:04:39;;;;;;;15.13;10.45;;;1.80;1.00;;;;;;5056690;28;20292;-74
2020/12/03 06:07:31;;;;;;;18.15;11.27;;;1.90;99.90;;;;;;5061737;28;20226;-72
2020/12/03 06:10:10;;;;;;;15.57;10.50;;;1.90;99.90;;;;;;5061631;28;20216;-75
2020/12/03 06:12:57;;;;;;;15.55;10.65;;;2.00;99.90;;;;;;5064230;28;20232;-75
2020/12/03 06:15:36;;;;;;;13.73;10.13;;;1.90;60.60;;;;;;5064149;28;20818;-75
2020/12/03 06:18:27;;;;;;;13.93;11.00;;;1.80;99.90;;;;;;5069285;28;20744;-75
2020/12/03 06:21:10;;;;;;;16.33;10.32;;;1.70;99.90;;;;;;5066976;28;20690;-74
2020/12/03 06:23:49;;;;;;;19.83;12.98;;;2.00;1.00;;;;;;5063102;28;20236;-74
2020/12/03 06:26:35;;;;;;;18.88;12.32;;;1.80;99.90;;;;;;5060311;28;20239;-74
2020/12/03 06:29:23;;;;;;;17.27;11.07;;;1.90;48.00;;;;;;5064565;28;20243;-74
2020/12/03 06:32:27;;;;;;;19.38;13.23;;;2.00;99.90;;;;;;5064200;28;20222;-74
2020/12/03 06:35:00;;;;;;;18.10;11.50;;;2.00;1.00;;;;;;5058989;28;20243;-75
2020/12/03 06:37:38;;;;;;;15.32;11.23;;;1.90;1.00;;;;;;5067042;28;20598;-74
2020/12/03 06:40:11;;;;;;;14.38;9.75;;;1.90;1.00;;;;;;5066319;28;21032;-75
2020/12/03 06:42:45;;;;;;;15.88;10.80;;;1.80;99.90;;;;;;5060553;28;20240;-74
2020/12/03 06:45:32;;;;;;;11.38;9.23;;;1.80;1.00;;;;;;5066545;28;20256;-74
2020/12/03 06:48:46;;;;;;;14.98;9.90;;;1.60;99.90;;;;;;5066250;28;20210;-74
2020/12/03 06:51:41;;;;;;;16.05;9.77;;;1.90;98.70;;;;;;5042659;28;20224;-74
2020/12/03 06:54:22;;;;;;;15.45;11.00;;;1.90;1.00;;;;;;5064432;28;20208;-74
2020/12/03 06:57:34;;;;;;;13.80;10.45;;;1.80;99.90;;;;;;5065566;28;20276;-75
2020/12/03 07:00:31;;;;;;;14.30;9.60;;;1.70;1.00;;;;;;5069363;28;20214;-74
2020/12/03 07:03:53;;;;;;;13.15;10.00;;;1.70;16.40;;;;;;5068057;28;20238;-74
2020/12/03 07:06:56;;;;;;;13.80;9.60;;;1.80;99.90;;;;;;5065445;28;20713;-74
2020/12/03 07:09:47;;;;;;;13.18;9.63;;;1.90;22.20;;;;;;5082226;28;20216;-74
2020/12/03 07:12:43;;;;;;;13.75;9.68;;;1.90;23.30;;;;;;5062456;28;20218;-73
2020/12/03 07:15:50;;;;;;;11.35;8.07;;;1.90;1.00;;;;;;5067601;28;20606;-74
2020/12/03 07:18:57;;;;;;;11.98;8.60;;;1.90;99.90;;;;;;5066658;28;20230;-74
2020/12/03 07:21:55;;;;;;;11.15;7.60;;;1.90;1.00;;;;;;5064594;28;20198;-74
2020/12/03 07:24:27;;;;;;;9.50;7.13;;;1.80;99.90;;;;;;5065088;28;20297;-73
2020/12/03 07:27:24;;;;;;;10.75;7.75;;;1.90;99.90;;;;;;5066067;28;20561;-74
2020/12/03 07:29:56;;;;;;;11.38;7.13;;;1.80;1.00;;;;;;5060225;28;20238;-73
2020/12/03 07:32:42;;;;;;;10.38;6.63;;;1.90;1.00;;;;;;5065479;28;20222;-74
2020/12/03 07:35:25;;;;;;;8.40;6.20;;;1.90;1.00;;;;;;5065500;28;20616;-74
2020/12/03 07:38:02;;;;;;;8.27;5.95;;;2.10;1.00;;;;;;5067352;28;20562;-73
2020/12/03 07:40:29;;;;;;;7.20;4.93;;;2.30;91.30;;;;;;5065015;28;20213;-73
2020/12/03 07:43:01;;;;;;;7.78;5.20;;;2.40;1.00;;;;;;5067103;28;20733;-74
2020/12/03 07:45:41;;;;;;;8.65;5.70;;;2.40;99.90;;;;;;5064875;28;20238;-73
2020/12/03 07:48:13;;;;;;;7.10;5.43;;;2.30;99.90;;;;;;5061386;28;20211;-73
2020/12/03 07:51:06;;;;;;;5.18;4.70;;;2.30;99.90;;;;;;5064399;28;20218;-75
2020/12/03 07:53:35;;;;;;;5.82;4.45;;;2.30;99.90;;;;;;5062236;28;20232;-73
2020/12/03 07:56:32;;;;;;;5.18;4.65;;;2.50;99.90;;;;;;5064041;28;20721;-73
2020/12/03 07:59:28;;;;;;;7.55;4.80;;;2.70;7.80;;;;;;5062021;28;20226;-75
2020/12/03 08:01:59;;;;;;;10.85;6.63;;;2.50;1.00;;;;;;5058558;28;20205;-74
2020/12/03 08:04:36;;;;;;;9.68;7.45;;;2.30;38.40;;;;;;5065851;28;20312;-73
2020/12/03 08:07:31;;;;;;;9.88;7.40;;;2.20;99.90;;;;;;5065580;28;20600;-74
2020/12/03 08:09:59;;;;;;;9.65;6.95;;;2.20;99.90;;;;;;5065468;28;20232;-73
2020/12/03 08:12:30;;;;;;;8.15;6.10;;;2.10;99.90;;;;;;5065841;28;20212;-74
2020/12/03 08:14:59;;;;;;;8.43;6.95;;;2.10;1.00;;;;;;5065144;28;20428;-74
2020/12/03 08:17:45;;;;;;;10.13;7.43;;;2.00;1.00;;;;;;5061727;28;20737;-73
2020/12/03 08:20:42;;;;;;;9.50;7.03;;;1.90;1.00;;;;;;5060672;28;20276;-74
2020/12/03 08:23:13;;;;;;;9.15;7.45;;;1.90;1.00;;;;;;5064850;28;20243;-74
2020/12/03 08:25:47;;;;;;;8.55;5.85;;;1.90;1.00;;;;;;5065323;28;20278;-74
2020/12/03 08:28:20;;;;;;;11.25;7.40;;;1.90;99.90;;;;;;5063574;28;20223;-74
2020/12/03 08:30:51;;;;;;;14.43;8.60;;;2.00;10.60;;;;;;5063107;28;20218;-73
2020/12/03 08:33:27;;;;;;;15.30;8.15;;;1.90;99.90;;;;;;5065158;28;20223;-74
2020/12/03 08:35:56;;;;;;;10.63;8.18;;;1.90;99.90;;;;;;5064054;28;20268;-73
2020/12/03 08:38:27;;;;;;;11.75;8.02;;;1.80;99.90;;;;;;5062509;28;20238;-74
2020/12/03 08:40:57;;;;;;;14.02;8.85;;;1.80;1.00;;;;;;5061820;28;20221;-74
2020/12/03 08:43:25;;;;;;;12.75;9.57;;;1.70;30.00;;;;;;5066822;28;20744;-74
2020/12/03 08:46:00;;;;;;;12.00;8.73;;;1.70;99.90;;;;;;5066261;28;20235;-73
2020/12/03 08:48:30;;;;;;;12.35;9.93;;;1.70;1.00;;;;;;5064946;28;20252;-73
2020/12/03 08:50:59;;;;;;;14.05;9.75;;;1.60;1.00;;;;;;5066605;28;20278;-73
2020/12/03 08:53:29;;;;;;;11.18;8.27;;;1.70;99.90;;;;;;5069726;28;20216;-73
2020/12/03 08:56:11;;;;;;;12.27;8.85;;;1.70;99.90;;;;;;5064078;28;20254;-73
2020/12/03 08:58:42;;;;;;;13.65;9.85;;;1.80;99.90;;;;;;5065287;28;20206;-73
2020/12/03 09:01:12;;;;;;;14.18;9.80;;;1.90;99.90;;;;;;5064847;28;20680;-74
2020/12/03 09:03:42;;;;;;;14.18;9.50;;;1.90;14.20;;;;;;5062958;28;20679;-74
2020/12/03 09:06:10;;;;;;;10.02;7.50;;;2.00;1.00;;;;;;5065398;28;20238;-75
2020/12/03 09:08:37;;;;;;;10.57;7.93;;;1.90;99.90;;;;;;5065345;28;20692;-74
2020/12/03 09:11:05;;;;;;;11.55;7.25;;;1.80;99.90;;;;;;5062994;28;20688;-75
2020/12/03 09:13:34;;;;;;;9.75;7.97;;;1.80;1.00;;;;;;5064018;28;20459;-75
2020/12/03 09:16:02;;;;;;;11.48;7.47;;;1.80;99.90;;;;;;5063167;28;20233;-75
2020/12/03 09:18:29;;;;;;;11.02;7.63;;;1.90;94.30;;;;;;5060157;28;20206;-74
2020/12/03 09:20:58;;;;;;;12.15;7.78;;;1.90;26.40;;;;;;5064677;28;20688;-72
2020/12/03 09:23:29;;;;;;;8.50;6.55;;;1.90;1.00;;;;;;5063695;28;20229;-73
2020/12/03 09:25:58;;;;;;;7.85;6.07;;;2.00;1.00;;;;;;5063145;28;20226;-72
2020/12/03 09:28:26;;;;;;;11.15;7.50;;;2.10;1.00;;;;;;5061509;28;20714;-74
2020/12/03 09:30:55;;;;;;;8.20;6.75;;;2.10;1.00;;;;;;5065318;28;20270;-73
2020/12/03 09:33:24;;;;;;;8.50;6.43;;;2.10;1.00;;;;;;5063696;28;20212;-74
2020/12/03 09:35:53;;;;;;;11.30;7.50;;;2.10;1.00;;;;;;5063411;28;20277;-73
2020/12/03 09:38:22;;;;;;;13.25;8.63;;;2.00;99.90;;;;;;5060076;28;20314;-73
2020/12/03 09:40:51;;;;;;;12.38;8.63;;;2.20;99.90;;;;;;5064441;28;20201;-72
2020/12/03 09:43:20;;;;;;;11.75;8.57;;;2.30;1.00;;;;;;5065296;28;20232;-75
2020/12/03 09:45:55;;;;;;;11.40;8.40;;;2.40;1.00;;;;;;5061069;28;20240;-73
2020/12/03 09:48:25;;;;;;;11.98;8.82;;;2.60;1.00;;;;;;5061236;28;20219;-73
2020/12/03 09:50:52;;;;;;;11.20;8.23;;;2.60;1.00;;;;;;5061288;28;20223;-72
2020/12/03 09:53:22;;;;;;;12.02;6.97;;;2.40;1.00;;;;;;5062451;28;20311;-74
2020/12/03 09:55:49;;;;;;;11.32;7.78;;;2.40;1.00;;;;;;5064117;28;20227;-73
2020/12/03 09:58:20;;;;;;;12.35;7.75;;;2.50;1.00;;;;;;5063127;28;20688;-73
2020/12/03 10:00:50;;;;;;;10.30;7.05;;;2.70;64.20;;;;;;5062416;28;20278;-74
2020/12/03 10:03:32;;;;;;;10.13;7.00;;;2.60;99.90;;;;;;5065599;28;20234;-74
2020/12/03 10:06:07;;;;;;;6.88;5.35;;;2.70;99.90;;;;;;5064672;28;20295;-73
2020/12/03 10:08:57;;;;;;;7.90;5.65;;;2.70;99.90;;;;;;5066374;28;20322;-73
2020/12/03 10:12:13;;;;;;;10.15;6.63;;;2.60;99.90;;;;;;5066359;28;20211;-74
2020/12/03 10:14:54;;;;;;;6.85;5.78;;;2.70;99.80;;;;;;5068067;28;20220;-74
2020/12/03 10:17:26;;;;;;;7.88;6.07;;;2.60;99.90;;;;;;5066585;28;20200;-73
2020/12/03 10:19:54;;;;;;;7.13;6.32;;;2.50;43.10;;;;;;5066394;28;20203;-74
2020/12/03 10:22:31;;;;;;;9.27;5.80;;;2.60;48.10;;;;;;5065458;28;20210;-73
2020/12/03 10:25:14;;;;;;;8.30;5.80;;;2.50;6.30;;;;;;5067520;28;20255;-73
2020/12/03 10:27:52;;;;;;;9.30;7.30;;;2.60;38.10;;;;;;5060981;28;20592;-73
2020/12/03 10:30:30;;;;;;;7.63;6.28;;;2.80;43.60;;;;;;5060871;28;20206;-75
2020/12/03 10:33:00;;;;;;;9.02;6.20;;;2.90;1.00;;;;;;5067613;28;20616;-75
2020/12/03 10:35:29;;;;;;;8.10;6.70;;;2.80;1.00;;;;;;5067892;28;20369;-74
2020/12/03 10:37:58;;;;;;;7.47;5.07;;;2.90;1.00;;;;;;5065023;28;20219;-74
2020/12/03 10:40:27;;;;;;;6.88;5.68;;;2.90;1.00;;;;;;5066834;28;20225;-73
2020/12/03 10:43:15;;;;;;;8.10;5.25;;;2.80;1.00;;;;;;5066486;28;20227;-76
2020/12/03 10:45:49;;;;;;;8.68;5.82;;;2.70;1.00;;;;;;5065473;28;20331;-74
2020/12/03 10:48:21;;;;;;;7.20;5.35;;;2.60;1.00;;;;;;5064997;28;20289;-73
2020/12/03 10:50:58;;;;;;;8.20;5.20;;;2.50;1.00;;;;;;5066990;28;20214;-74
2020/12/03 10:53:27;;;;;;;5.38;4.40;;;2.50;1.00;;;;;;5064906;28;20675;-73
2020/12/03 10:56:00;;;;;;;8.80;5.97;;;2.50;1.00;;;;;;5067918;28;20702;-73
2020/12/03 10:58:32;;;;;;;8.07;5.50;;;2.50;1.00;;;;;;5066032;28;20686;-73
2020/12/03 11:01:06;;;;;;;8.95;5.65;;;2.50;1.00;;;;;;5066397;28;20242;-73
2020/12/03 11:03:37;;;;;;;8.32;6.03;;;2.50;1.00;;;;;;5065756;28;20234;-74
2020/12/03 11:06:05;;;;;;;6.93;5.20;;;2.50;1.00;;;;;;5064779;28;20263;-72
2020/12/03 11:08:37;;;;;;;9.13;6.40;;;2.60;1.00;;;;;;5064385;28;20261;-74
2020/12/03 11:11:07;;;;;;;10.23;5.65;;;2.60;1.00;;;;;;5066728;28;20216;-74
2020/12/03 11:13:35;;;;;;;7.65;5.07;;;2.60;1.00;;;;;;5063916;28;20220;-75
2020/12/03 11:16:04;;;;;;;9.02;5.93;;;2.60;1.00;;;;;;5064716;28;20294;-74
2020/12/03 11:18:40;;;;;;;7.38;6.07;;;2.60;1.00;;;;;;5062385;28;20229;-74
2020/12/03 11:21:15;;;;;;;5.75;4.63;;;2.50;1.00;;;;;;5065719;28;20230;-73
2020/12/03 11:23:57;;;;;;;7.63;5.70;;;2.40;1.00;;;;;;5062783;28;20246;-73
2020/12/03 11:26:29;;;;;;;6.60;5.68;;;2.50;1.00;;;;;;5064446;28;20958;-74
2020/12/03 11:29:09;;;;;;;9.02;6.00;;;2.50;1.00;;;;;;5065358;28;20278;-73
2020/12/03 11:31:36;;;;;;;8.73;5.88;;;2.50;1.00;;;;;;5062557;28;20294;-74
2020/12/03 11:34:03;;;;;;;7.40;5.82;;;2.50;1.00;;;;;;5066444;28;20219;-74
2020/12/03 11:36:36;;;;;;;9.05;6.50;;;2.60;1.00;;;;;;5066357;28;20379;-74
2020/12/03 11:39:06;;;;;;;8.32;6.03;;;2.60;1.00;;;;;;5063184;28;20215;-73
2020/12/03 11:41:45;;;;;;;7.97;5.50;;;2.60;1.00;;;;;;5065032;28;20229;-73
2020/12/03 11:49:44;;;;;;;9.20;6.50;;;2.60;1.00;;;;;;5059407;28;20227;-72
2020/12/03 11:52:16;;;;;;;6.60;5.70;;;2.60;1.00;;;;;;5063911;28;20601;-74
2020/12/03 11:54:45;;;;;;;9.50;6.53;;;2.60;1.00;;;;;;5065874;28;20271;-74
2020/12/03 11:57:15;;;;;;;8.38;5.95;;;2.60;1.00;;;;;;5062800;28;20217;-71
2020/12/03 11:59:42;;;;;;;8.30;5.55;;;2.60;1.00;;;;;;5065963;28;20206;-71
2020/12/03 12:02:10;;;;;;;6.72;5.72;;;2.70;1.00;;;;;;5063205;28;20213;-72
2020/12/03 12:04:46;;;;;;;6.63;6.03;;;2.70;1.00;;;;;;5065558;28;20630;-71
2020/12/03 12:07:32;;;;;;;8.93;5.80;;;2.60;1.00;;;;;;5068244;28;20222;-72
2020/12/03 12:10:12;;;;;;;10.45;6.07;;;2.50;1.00;;;;;;5058560;28;20208;-71
2020/12/03 12:12:45;;;;;;;9.85;5.60;;;2.50;1.00;;;;;;5064927;28;20251;-72
2020/12/03 12:15:13;;;;;;;8.77;6.15;;;2.60;1.00;;;;;;5067044;28;20239;-72
2020/12/03 12:17:40;;;;;;;9.95;5.82;;;2.60;1.00;;;;;;5063169;28;20234;-71
2020/12/03 12:20:09;;;;;;;6.07;5.10;;;2.70;1.00;;;;;;5063955;28;20622;-71
2020/12/03 12:22:37;;;;;;;8.77;6.60;;;2.80;1.00;;;;;;5063997;28;20225;-72
2020/12/03 12:25:07;;;;;;;9.60;6.25;;;2.90;1.00;;;;;;5067042;28;20335;-71
2020/12/03 12:27:34;;;;;;;9.00;5.72;;;3.00;1.00;;;;;;5063269;28;20212;-73
2020/12/03 12:30:03;;;;;;;10.25;6.10;;;3.00;1.00;;;;;;5061542;28;20218;-71
2020/12/03 12:32:30;;;;;;;5.68;5.10;;;3.00;1.00;;;;;;5063469;28;20214;-73
2020/12/03 12:34:57;;;;;;;7.05;5.50;;;3.20;1.00;;;;;;5063347;28;20350;-72
2020/12/03 12:37:25;;;;;;;6.10;5.47;;;3.20;1.00;;;;;;5066761;28;20241;-73
2020/12/03 12:39:52;;;;;;;8.75;7.15;;;3.00;1.00;;;;;;5065293;28;20264;-71
2020/12/03 12:42:25;;;;;;;7.15;5.57;;;3.00;1.00;;;;;;5065947;28;20560;-73
2020/12/03 12:44:53;;;;;;;8.10;6.18;;;3.00;1.00;;;;;;5064668;28;20249;-72
2020/12/03 12:47:24;;;;;;;8.32;6.45;;;3.00;1.00;;;;;;5067305;28;20215;-72
2020/12/03 12:49:51;;;;;;;9.63;5.70;;;3.10;1.00;;;;;;5058882;28;20218;-73
2020/12/03 12:52:19;;;;;;;8.02;5.50;;;3.20;1.00;;;;;;5062313;28;20708;-73
2020/12/03 12:54:46;;;;;;;8.98;5.20;;;3.20;1.00;;;;;;5061268;28;20236;-73
2020/12/03 12:57:17;;;;;;;11.13;6.30;;;3.10;1.00;;;;;;5061516;28;20300;-73
2020/12/03 12:59:46;;;;;;;7.32;6.03;;;2.90;1.00;;;;;;5061055;28;20223;-72
2020/12/03 13:02:13;;;;;;;8.98;7.50;;;2.90;1.00;;;;;;5065899;28;20222;-73
2020/12/03 13:04:45;;;;;;;8.15;7.10;;;3.00;1.00;;;;;;5065845;28;20325;-73
2020/12/03 13:07:12;;;;;;;11.75;6.22;;;3.20;1.00;;;;;;5066106;28;20636;-73
2020/12/03 13:09:40;;;;;;;7.90;5.15;;;3.40;1.00;;;;;;5064211;28;20273;-74
2020/12/03 13:12:07;;;;;;;8.00;5.65;;;3.50;1.00;;;;;;5073250;28;20209;-73
2020/12/03 13:14:34;;;;;;;12.00;6.65;;;3.40;1.00;;;;;;5070813;28;21198;-75
2020/12/03 13:17:02;;;;;;;8.40;6.35;;;3.40;1.00;;;;;;5066394;28;20211;-73
2020/12/03 13:19:29;;;;;;;8.77;6.70;;;3.20;1.00;;;;;;5065666;28;20242;-75
2020/12/03 13:21:58;;;;;;;8.00;5.55;;;3.20;1.00;;;;;;5066249;28;20290;-72
2020/12/03 13:24:26;;;;;;;9.63;7.82;;;3.20;1.00;;;;;;5060929;28;20290;-74
2020/12/03 13:26:53;;;;;;;9.02;7.30;;;3.10;1.00;;;;;;5065431;28;20292;-73